sensor_id;sensor_type;location;lat;lon;timestamp;temperature;humidity
59148;DHT22;44930;52.878;6.168;2023-09-30T00:04:10;12.40;99.90
59148;DHT22;44930;52.878;6.168;2023-09-30T00:06:36;12.30;99.90
59148;DHT22;44930;52.878;6.168;2023-09-30T00:09:02;12.20;99.90
59148;DHT22;44930;52.878;6.168;2023-09-30T00:11:28;12.30;99.90
59148;DHT22;44930;52.878;6.168;2023-09-30T00:13:53;12.30;99.90
59148;DHT22;44930;52.878;6.168;2023-09-30T00:16:19;12.20;99.90
59148;DHT22;44930;52.878;6.168;2023-09-30T00:18:44;12.10;99.90
59148;DHT22;44930;52.878;6.168;2023-09-30T00:21:10;12.10;99.90
59148;DHT22;44930;52.878;6.168;2023-09-30T00:23:36;12.00;99.90
59148;DHT22;44930;52.878;6.168;2023-09-30T00:26:02;12.00;99.90
59148;DHT22;44930;52.878;6.168;2023-09-30T00:33:19;12.30;99.90
59148;DHT22;44930;52.878;6.168;2023-09-30T00:35:45;12.30;99.90
59148;DHT22;44930;52.878;6.168;2023-09-30T00:38:11;12.10;99.90
59148;DHT22;44930;52.878;6.168;2023-09-30T00:43:03;12.20;99.90
59148;DHT22;44930;52.878;6.168;2023-09-30T00:45:30;12.30;99.90
59148;DHT22;44930;52.878;6.168;2023-09-30T00:47:56;12.20;99.90
59148;DHT22;44930;52.878;6.168;2023-09-30T00:50:22;12.20;99.90
59148;DHT22;44930;52.878;6.168;2023-09-30T00:52:48;12.20;99.90
59148;DHT22;44930;52.878;6.168;2023-09-30T00:55:15;12.20;99.90
59148;DHT22;44930;52.878;6.168;2023-09-30T00:57:41;12.20;99.90
59148;DHT22;44930;52.878;6.168;2023-09-30T01:00:07;12.30;99.90
59148;DHT22;44930;52.878;6.168;2023-09-30T01:02:40;12.20;99.90
59148;DHT22;44930;52.878;6.168;2023-09-30T01:05:07;12.50;99.90
59148;DHT22;44930;52.878;6.168;2023-09-30T01:07:34;12.30;99.90
59148;DHT22;44930;52.878;6.168;2023-09-30T01:10:00;12.20;99.90
59148;DHT22;44930;52.878;6.168;2023-09-30T01:12:26;12.30;99.90
59148;DHT22;44930;52.878;6.168;2023-09-30T01:14:57;12.20;99.90
59148;DHT22;44930;52.878;6.168;2023-09-30T01:19:49;12.30;99.90
59148;DHT22;44930;52.878;6.168;2023-09-30T01:22:15;12.20;99.90
59148;DHT22;44930;52.878;6.168;2023-09-30T01:24:42;12.30;99.90
59148;DHT22;44930;52.878;6.168;2023-09-30T01:27:09;12.20;99.90
59148;DHT22;44930;52.878;6.168;2023-09-30T01:29:35;12.10;99.90
59148;DHT22;44930;52.878;6.168;2023-09-30T01:32:04;12.30;99.90
59148;DHT22;44930;52.878;6.168;2023-09-30T01:34:30;12.20;99.90
59148;DHT22;44930;52.878;6.168;2023-09-30T01:36:56;12.20;99.90
59148;DHT22;44930;52.878;6.168;2023-09-30T01:41:48;12.30;99.90
59148;DHT22;44930;52.878;6.168;2023-09-30T01:46:39;12.20;99.90
59148;DHT22;44930;52.878;6.168;2023-09-30T01:53:57;12.40;99.90
59148;DHT22;44930;52.878;6.168;2023-09-30T01:56:22;12.20;99.90
59148;DHT22;44930;52.878;6.168;2023-09-30T01:58:48;12.20;99.90
59148;DHT22;44930;52.878;6.168;2023-09-30T02:01:13;12.20;99.90
59148;DHT22;44930;52.878;6.168;2023-09-30T02:08:31;12.20;99.90
59148;DHT22;44930;52.878;6.168;2023-09-30T02:13:22;12.20;99.90
59148;DHT22;44930;52.878;6.168;2023-09-30T02:15:48;12.20;99.90
59148;DHT22;44930;52.878;6.168;2023-09-30T02:18:14;12.20;99.90
59148;DHT22;44930;52.878;6.168;2023-09-30T02:20:40;12.10;99.90
59148;DHT22;44930;52.878;6.168;2023-09-30T02:23:06;12.10;99.90
59148;DHT22;44930;52.878;6.168;2023-09-30T02:25:32;12.00;99.90
59148;DHT22;44930;52.878;6.168;2023-09-30T02:32:53;12.10;99.90
59148;DHT22;44930;52.878;6.168;2023-09-30T02:37:45;12.10;99.90
59148;DHT22;44930;52.878;6.168;2023-09-30T02:42:40;12.00;99.90
59148;DHT22;44930;52.878;6.168;2023-09-30T02:45:07;12.00;99.90
59148;DHT22;44930;52.878;6.168;2023-09-30T02:47:37;12.00;99.90
59148;DHT22;44930;52.878;6.168;2023-09-30T02:50:04;12.20;99.90
59148;DHT22;44930;52.878;6.168;2023-09-30T02:52:30;12.20;99.90
59148;DHT22;44930;52.878;6.168;2023-09-30T02:54:57;12.10;99.90
59148;DHT22;44930;52.878;6.168;2023-09-30T02:57:24;12.00;99.90
59148;DHT22;44930;52.878;6.168;2023-09-30T03:02:20;12.20;99.90
59148;DHT22;44930;52.878;6.168;2023-09-30T03:04:49;12.00;99.90
59148;DHT22;44930;52.878;6.168;2023-09-30T03:09:43;12.00;99.90
59148;DHT22;44930;52.878;6.168;2023-09-30T03:12:09;12.20;99.90
59148;DHT22;44930;52.878;6.168;2023-09-30T03:14:34;12.00;99.90
59148;DHT22;44930;52.878;6.168;2023-09-30T03:19:26;12.00;99.90
59148;DHT22;44930;52.878;6.168;2023-09-30T03:21:52;11.80;99.90
59148;DHT22;44930;52.878;6.168;2023-09-30T03:24:17;12.10;99.90
59148;DHT22;44930;52.878;6.168;2023-09-30T03:26:43;12.00;99.90
59148;DHT22;44930;52.878;6.168;2023-09-30T03:29:09;12.10;99.90
59148;DHT22;44930;52.878;6.168;2023-09-30T03:31:35;12.00;99.90
59148;DHT22;44930;52.878;6.168;2023-09-30T03:34:02;12.00;99.90
59148;DHT22;44930;52.878;6.168;2023-09-30T03:36:29;12.00;99.90
59148;DHT22;44930;52.878;6.168;2023-09-30T03:38:55;12.10;99.90
59148;DHT22;44930;52.878;6.168;2023-09-30T03:41:24;11.90;99.90
59148;DHT22;44930;52.878;6.168;2023-09-30T03:43:50;12.00;99.90
59148;DHT22;44930;52.878;6.168;2023-09-30T03:46:16;12.00;99.90
59148;DHT22;44930;52.878;6.168;2023-09-30T03:48:42;12.00;99.90
59148;DHT22;44930;52.878;6.168;2023-09-30T03:51:10;12.10;99.90
59148;DHT22;44930;52.878;6.168;2023-09-30T03:56:05;12.00;99.90
59148;DHT22;44930;52.878;6.168;2023-09-30T03:58:32;12.00;99.90
59148;DHT22;44930;52.878;6.168;2023-09-30T04:00:59;12.00;99.90
59148;DHT22;44930;52.878;6.168;2023-09-30T04:03:26;12.00;99.90
59148;DHT22;44930;52.878;6.168;2023-09-30T04:13:10;11.80;99.90
59148;DHT22;44930;52.878;6.168;2023-09-30T04:15:37;12.00;99.90
59148;DHT22;44930;52.878;6.168;2023-09-30T04:20:31;11.90;99.90
59148;DHT22;44930;52.878;6.168;2023-09-30T04:22:56;11.80;99.90
59148;DHT22;44930;52.878;6.168;2023-09-30T04:25:23;12.00;99.90
59148;DHT22;44930;52.878;6.168;2023-09-30T04:27:50;11.80;99.90
59148;DHT22;44930;52.878;6.168;2023-09-30T04:30:16;12.00;99.90
59148;DHT22;44930;52.878;6.168;2023-09-30T04:32:42;12.10;99.90
59148;DHT22;44930;52.878;6.168;2023-09-30T04:35:08;11.90;99.90
59148;DHT22;44930;52.878;6.168;2023-09-30T04:37:34;12.00;99.90
59148;DHT22;44930;52.878;6.168;2023-09-30T04:40:05;11.90;99.90
59148;DHT22;44930;52.878;6.168;2023-09-30T04:42:57;12.00;99.90
59148;DHT22;44930;52.878;6.168;2023-09-30T04:45:27;11.90;99.90
59148;DHT22;44930;52.878;6.168;2023-09-30T04:47:53;12.00;99.90
59148;DHT22;44930;52.878;6.168;2023-09-30T04:50:19;12.10;99.90
59148;DHT22;44930;52.878;6.168;2023-09-30T04:52:47;12.00;99.90
59148;DHT22;44930;52.878;6.168;2023-09-30T04:57:46;11.90;99.90
59148;DHT22;44930;52.878;6.168;2023-09-30T05:00:17;12.00;99.90
59148;DHT22;44930;52.878;6.168;2023-09-30T05:02:44;12.30;99.90
59148;DHT22;44930;52.878;6.168;2023-09-30T05:05:13;12.10;99.90
59148;DHT22;44930;52.878;6.168;2023-09-30T05:07:40;12.10;99.90
59148;DHT22;44930;52.878;6.168;2023-09-30T05:10:07;12.10;99.90
59148;DHT22;44930;52.878;6.168;2023-09-30T05:12:36;11.90;99.90
59148;DHT22;44930;52.878;6.168;2023-09-30T05:15:02;12.00;99.90
59148;DHT22;44930;52.878;6.168;2023-09-30T05:17:28;12.00;99.90
59148;DHT22;44930;52.878;6.168;2023-09-30T05:19:56;12.10;99.90
59148;DHT22;44930;52.878;6.168;2023-09-30T05:24:53;12.00;99.90
59148;DHT22;44930;52.878;6.168;2023-09-30T05:27:19;11.90;99.90
59148;DHT22;44930;52.878;6.168;2023-09-30T05:29:45;12.00;99.90
59148;DHT22;44930;52.878;6.168;2023-09-30T05:32:10;12.00;99.90
59148;DHT22;44930;52.878;6.168;2023-09-30T05:34:36;12.00;99.90
59148;DHT22;44930;52.878;6.168;2023-09-30T05:37:04;11.80;99.90
59148;DHT22;44930;52.878;6.168;2023-09-30T05:39:30;12.00;99.90
59148;DHT22;44930;52.878;6.168;2023-09-30T05:41:57;11.90;99.90
59148;DHT22;44930;52.878;6.168;2023-09-30T05:44:23;11.90;99.90
59148;DHT22;44930;52.878;6.168;2023-09-30T05:46:48;11.90;99.90
59148;DHT22;44930;52.878;6.168;2023-09-30T05:49:14;11.80;99.90
59148;DHT22;44930;52.878;6.168;2023-09-30T05:51:42;11.90;99.90
59148;DHT22;44930;52.878;6.168;2023-09-30T05:54:08;11.70;99.90
59148;DHT22;44930;52.878;6.168;2023-09-30T05:56:36;11.80;99.90
59148;DHT22;44930;52.878;6.168;2023-09-30T06:01:31;11.80;99.90
59148;DHT22;44930;52.878;6.168;2023-09-30T06:03:58;11.90;99.90
59148;DHT22;44930;52.878;6.168;2023-09-30T06:06:23;11.80;99.90
59148;DHT22;44930;52.878;6.168;2023-09-30T06:08:51;11.90;99.90
59148;DHT22;44930;52.878;6.168;2023-09-30T06:11:17;11.80;99.90
59148;DHT22;44930;52.878;6.168;2023-09-30T06:13:47;11.90;99.90
59148;DHT22;44930;52.878;6.168;2023-09-30T06:16:13;11.90;99.90
59148;DHT22;44930;52.878;6.168;2023-09-30T06:18:39;11.80;99.90
59148;DHT22;44930;52.878;6.168;2023-09-30T06:21:04;11.90;99.90
59148;DHT22;44930;52.878;6.168;2023-09-30T06:23:30;11.80;99.90
59148;DHT22;44930;52.878;6.168;2023-09-30T06:25:56;10.60;99.90
59148;DHT22;44930;52.878;6.168;2023-09-30T06:30:54;11.90;99.90
59148;DHT22;44930;52.878;6.168;2023-09-30T06:33:20;12.00;99.90
59148;DHT22;44930;52.878;6.168;2023-09-30T06:35:46;11.90;99.90
59148;DHT22;44930;52.878;6.168;2023-09-30T06:38:20;12.00;99.90
59148;DHT22;44930;52.878;6.168;2023-09-30T06:40:46;12.10;99.90
59148;DHT22;44930;52.878;6.168;2023-09-30T06:43:13;12.30;99.90
59148;DHT22;44930;52.878;6.168;2023-09-30T06:45:44;12.00;99.90
59148;DHT22;44930;52.878;6.168;2023-09-30T06:48:10;12.00;99.90
59148;DHT22;44930;52.878;6.168;2023-09-30T06:50:40;12.10;99.90
59148;DHT22;44930;52.878;6.168;2023-09-30T06:53:05;12.10;99.90
59148;DHT22;44930;52.878;6.168;2023-09-30T06:55:31;12.10;99.90
59148;DHT22;44930;52.878;6.168;2023-09-30T06:57:57;12.10;99.90
59148;DHT22;44930;52.878;6.168;2023-09-30T07:00:22;12.10;99.90
59148;DHT22;44930;52.878;6.168;2023-09-30T07:02:48;12.40;99.90
59148;DHT22;44930;52.878;6.168;2023-09-30T07:05:15;12.20;99.90
59148;DHT22;44930;52.878;6.168;2023-09-30T07:07:41;12.30;99.90
59148;DHT22;44930;52.878;6.168;2023-09-30T07:10:09;12.40;99.90
59148;DHT22;44930;52.878;6.168;2023-09-30T07:12:35;12.30;99.90
59148;DHT22;44930;52.878;6.168;2023-09-30T07:15:05;12.50;99.90
59148;DHT22;44930;52.878;6.168;2023-09-30T07:17:31;12.40;99.90
59148;DHT22;44930;52.878;6.168;2023-09-30T07:19:57;12.50;99.90
59148;DHT22;44930;52.878;6.168;2023-09-30T07:22:23;12.50;99.90
59148;DHT22;44930;52.878;6.168;2023-09-30T07:27:14;12.60;99.90
59148;DHT22;44930;52.878;6.168;2023-09-30T07:32:07;12.80;99.90
59148;DHT22;44930;52.878;6.168;2023-09-30T07:34:33;12.90;99.90
59148;DHT22;44930;52.878;6.168;2023-09-30T07:36:58;13.10;99.90
59148;DHT22;44930;52.878;6.168;2023-09-30T07:44:16;13.10;99.90
59148;DHT22;44930;52.878;6.168;2023-09-30T07:46:42;13.30;99.90
59148;DHT22;44930;52.878;6.168;2023-09-30T07:49:11;13.30;99.90
59148;DHT22;44930;52.878;6.168;2023-09-30T07:51:37;13.40;99.90
59148;DHT22;44930;52.878;6.168;2023-09-30T07:56:31;13.70;99.90
59148;DHT22;44930;52.878;6.168;2023-09-30T07:58:56;13.70;99.90
59148;DHT22;44930;52.878;6.168;2023-09-30T08:01:22;13.80;99.90
59148;DHT22;44930;52.878;6.168;2023-09-30T08:03:48;13.70;99.90
59148;DHT22;44930;52.878;6.168;2023-09-30T08:06:13;13.90;99.90
59148;DHT22;44930;52.878;6.168;2023-09-30T08:08:39;14.00;99.90
59148;DHT22;44930;52.878;6.168;2023-09-30T08:11:05;14.00;99.90
59148;DHT22;44930;52.878;6.168;2023-09-30T08:13:32;14.10;99.90
59148;DHT22;44930;52.878;6.168;2023-09-30T08:15:58;14.30;99.90
59148;DHT22;44930;52.878;6.168;2023-09-30T08:18:24;14.40;99.90
59148;DHT22;44930;52.878;6.168;2023-09-30T08:20:49;14.50;99.90
59148;DHT22;44930;52.878;6.168;2023-09-30T08:23:15;14.50;99.90
59148;DHT22;44930;52.878;6.168;2023-09-30T08:25:41;14.60;99.90
59148;DHT22;44930;52.878;6.168;2023-09-30T08:28:07;14.80;99.90
59148;DHT22;44930;52.878;6.168;2023-09-30T08:30:35;14.80;99.90
59148;DHT22;44930;52.878;6.168;2023-09-30T08:33:01;15.00;99.90
59148;DHT22;44930;52.878;6.168;2023-09-30T08:35:29;15.10;99.90
59148;DHT22;44930;52.878;6.168;2023-09-30T08:37:54;15.20;99.90
59148;DHT22;44930;52.878;6.168;2023-09-30T08:40:23;15.30;99.90
59148;DHT22;44930;52.878;6.168;2023-09-30T08:42:51;15.40;99.90
59148;DHT22;44930;52.878;6.168;2023-09-30T08:45:18;15.40;99.90
59148;DHT22;44930;52.878;6.168;2023-09-30T08:47:43;15.50;99.90
59148;DHT22;44930;52.878;6.168;2023-09-30T08:50:09;15.50;99.90
59148;DHT22;44930;52.878;6.168;2023-09-30T08:52:38;15.70;99.90
59148;DHT22;44930;52.878;6.168;2023-09-30T08:55:04;15.80;99.90
59148;DHT22;44930;52.878;6.168;2023-09-30T08:57:30;15.80;99.90
59148;DHT22;44930;52.878;6.168;2023-09-30T08:59:57;15.90;99.90
59148;DHT22;44930;52.878;6.168;2023-09-30T09:02:23;16.00;99.90
59148;DHT22;44930;52.878;6.168;2023-09-30T09:04:49;16.10;99.90
59148;DHT22;44930;52.878;6.168;2023-09-30T09:07:15;16.20;99.90
59148;DHT22;44930;52.878;6.168;2023-09-30T09:12:19;16.10;99.90
59148;DHT22;44930;52.878;6.168;2023-09-30T09:17:11;16.40;99.90
59148;DHT22;44930;52.878;6.168;2023-09-30T09:19:37;16.50;99.90
59148;DHT22;44930;52.878;6.168;2023-09-30T09:22:03;16.60;99.90
59148;DHT22;44930;52.878;6.168;2023-09-30T09:24:34;16.50;99.90
59148;DHT22;44930;52.878;6.168;2023-09-30T09:27:10;16.40;99.90
59148;DHT22;44930;52.878;6.168;2023-09-30T09:29:37;16.70;99.90
59148;DHT22;44930;52.878;6.168;2023-09-30T09:32:10;16.70;99.90
59148;DHT22;44930;52.878;6.168;2023-09-30T09:34:37;16.80;99.90
59148;DHT22;44930;52.878;6.168;2023-09-30T09:37:16;16.80;99.90
59148;DHT22;44930;52.878;6.168;2023-09-30T09:40:09;16.70;99.90
59148;DHT22;44930;52.878;6.168;2023-09-30T09:42:35;16.90;99.90
59148;DHT22;44930;52.878;6.168;2023-09-30T09:45:04;16.70;99.90
59148;DHT22;44930;52.878;6.168;2023-09-30T09:47:32;17.20;99.90
59148;DHT22;44930;52.878;6.168;2023-09-30T09:49:58;17.10;99.90
59148;DHT22;44930;52.878;6.168;2023-09-30T09:52:24;17.00;99.90
59148;DHT22;44930;52.878;6.168;2023-09-30T09:54:51;17.10;99.90
59148;DHT22;44930;52.878;6.168;2023-09-30T09:57:17;17.10;99.90
59148;DHT22;44930;52.878;6.168;2023-09-30T09:59:44;17.20;99.90
59148;DHT22;44930;52.878;6.168;2023-09-30T10:04:41;17.40;99.90
59148;DHT22;44930;52.878;6.168;2023-09-30T10:07:14;17.50;99.90
59148;DHT22;44930;52.878;6.168;2023-09-30T10:09:47;17.40;99.90
59148;DHT22;44930;52.878;6.168;2023-09-30T10:12:14;17.50;99.90
59148;DHT22;44930;52.878;6.168;2023-09-30T10:14:40;17.90;99.90
59148;DHT22;44930;52.878;6.168;2023-09-30T10:19:32;17.80;99.90
59148;DHT22;44930;52.878;6.168;2023-09-30T10:24:41;17.70;99.90
59148;DHT22;44930;52.878;6.168;2023-09-30T10:29:53;17.50;99.90
59148;DHT22;44930;52.878;6.168;2023-09-30T10:32:19;17.40;99.90
59148;DHT22;44930;52.878;6.168;2023-09-30T10:34:49;17.10;99.90
59148;DHT22;44930;52.878;6.168;2023-09-30T10:37:22;17.20;99.90
59148;DHT22;44930;52.878;6.168;2023-09-30T10:40:00;17.50;99.90
59148;DHT22;44930;52.878;6.168;2023-09-30T10:42:47;17.60;99.90
59148;DHT22;44930;52.878;6.168;2023-09-30T10:51:10;18.10;99.90
59148;DHT22;44930;52.878;6.168;2023-09-30T10:53:45;18.00;99.90
59148;DHT22;44930;52.878;6.168;2023-09-30T10:56:12;18.00;99.90
59148;DHT22;44930;52.878;6.168;2023-09-30T10:58:48;17.90;99.90
59148;DHT22;44930;52.878;6.168;2023-09-30T11:01:18;18.00;99.90
59148;DHT22;44930;52.878;6.168;2023-09-30T11:06:15;18.20;99.90
59148;DHT22;44930;52.878;6.168;2023-09-30T11:08:59;18.30;99.90
59148;DHT22;44930;52.878;6.168;2023-09-30T11:11:38;18.10;99.90
59148;DHT22;44930;52.878;6.168;2023-09-30T11:14:28;18.80;99.90
59148;DHT22;44930;52.878;6.168;2023-09-30T11:16:57;18.40;99.90
59148;DHT22;44930;52.878;6.168;2023-09-30T11:19:23;18.30;99.90
59148;DHT22;44930;52.878;6.168;2023-09-30T11:21:50;18.50;99.90
59148;DHT22;44930;52.878;6.168;2023-09-30T11:24:17;18.60;99.90
59148;DHT22;44930;52.878;6.168;2023-09-30T11:26:45;18.30;99.90
59148;DHT22;44930;52.878;6.168;2023-09-30T11:29:16;18.90;99.90
59148;DHT22;44930;52.878;6.168;2023-09-30T11:31:45;18.80;99.90
59148;DHT22;44930;52.878;6.168;2023-09-30T11:34:12;18.90;99.90
59148;DHT22;44930;52.878;6.168;2023-09-30T11:36:48;19.10;99.90
59148;DHT22;44930;52.878;6.168;2023-09-30T11:39:28;19.20;99.90
59148;DHT22;44930;52.878;6.168;2023-09-30T11:41:54;18.90;99.90
59148;DHT22;44930;52.878;6.168;2023-09-30T11:44:26;19.20;99.90
59148;DHT22;44930;52.878;6.168;2023-09-30T11:47:02;19.20;99.90
59148;DHT22;44930;52.878;6.168;2023-09-30T11:49:34;19.10;99.90
59148;DHT22;44930;52.878;6.168;2023-09-30T11:52:02;18.70;99.90
59148;DHT22;44930;52.878;6.168;2023-09-30T11:54:36;19.20;99.90
59148;DHT22;44930;52.878;6.168;2023-09-30T11:57:07;19.10;99.90
59148;DHT22;44930;52.878;6.168;2023-09-30T11:59:35;19.30;99.90
59148;DHT22;44930;52.878;6.168;2023-09-30T12:02:01;19.50;99.90
59148;DHT22;44930;52.878;6.168;2023-09-30T12:04:29;19.40;99.90
59148;DHT22;44930;52.878;6.168;2023-09-30T12:06:55;19.60;99.90
59148;DHT22;44930;52.878;6.168;2023-09-30T12:09:20;19.90;99.90
59148;DHT22;44930;52.878;6.168;2023-09-30T12:11:52;19.70;99.90
59148;DHT22;44930;52.878;6.168;2023-09-30T12:14:19;19.70;99.90
59148;DHT22;44930;52.878;6.168;2023-09-30T12:16:46;19.30;99.90
59148;DHT22;44930;52.878;6.168;2023-09-30T12:19:19;20.00;99.90
59148;DHT22;44930;52.878;6.168;2023-09-30T12:21:46;19.70;99.90
59148;DHT22;44930;52.878;6.168;2023-09-30T12:24:16;20.20;99.90
59148;DHT22;44930;52.878;6.168;2023-09-30T12:26:51;19.90;99.90
59148;DHT22;44930;52.878;6.168;2023-09-30T12:29:19;19.50;99.90
59148;DHT22;44930;52.878;6.168;2023-09-30T12:31:45;20.00;99.90
59148;DHT22;44930;52.878;6.168;2023-09-30T12:34:12;19.70;99.90
59148;DHT22;44930;52.878;6.168;2023-09-30T12:36:39;19.80;99.90
59148;DHT22;44930;52.878;6.168;2023-09-30T12:39:05;19.50;99.90
59148;DHT22;44930;52.878;6.168;2023-09-30T12:41:45;19.80;99.90
59148;DHT22;44930;52.878;6.168;2023-09-30T12:44:11;19.60;99.90
59148;DHT22;44930;52.878;6.168;2023-09-30T12:46:37;19.10;99.90
59148;DHT22;44930;52.878;6.168;2023-09-30T12:49:05;19.30;99.90
59148;DHT22;44930;52.878;6.168;2023-09-30T12:51:30;19.50;99.90
59148;DHT22;44930;52.878;6.168;2023-09-30T12:53:56;19.10;99.90
59148;DHT22;44930;52.878;6.168;2023-09-30T12:56:23;19.00;99.90
59148;DHT22;44930;52.878;6.168;2023-09-30T12:58:48;19.20;99.90
59148;DHT22;44930;52.878;6.168;2023-09-30T13:01:14;19.00;99.90
59148;DHT22;44930;52.878;6.168;2023-09-30T13:03:39;18.80;99.90
59148;DHT22;44930;52.878;6.168;2023-09-30T13:06:05;18.40;99.90
59148;DHT22;44930;52.878;6.168;2023-09-30T13:08:31;18.60;99.90
59148;DHT22;44930;52.878;6.168;2023-09-30T13:11:00;18.50;99.90
59148;DHT22;44930;52.878;6.168;2023-09-30T13:13:31;18.50;99.90
59148;DHT22;44930;52.878;6.168;2023-09-30T13:16:02;18.40;99.90
59148;DHT22;44930;52.878;6.168;2023-09-30T13:18:27;18.40;99.90
59148;DHT22;44930;52.878;6.168;2023-09-30T13:20:53;18.40;99.90
59148;DHT22;44930;52.878;6.168;2023-09-30T13:23:19;18.30;99.90
59148;DHT22;44930;52.878;6.168;2023-09-30T13:25:45;18.20;99.90
59148;DHT22;44930;52.878;6.168;2023-09-30T13:28:10;18.80;99.90
59148;DHT22;44930;52.878;6.168;2023-09-30T13:30:36;18.40;99.90
59148;DHT22;44930;52.878;6.168;2023-09-30T13:33:02;18.60;99.90
59148;DHT22;44930;52.878;6.168;2023-09-30T13:35:27;19.20;99.90
59148;DHT22;44930;52.878;6.168;2023-09-30T13:37:53;19.30;99.90
59148;DHT22;44930;52.878;6.168;2023-09-30T13:40:18;19.50;99.90
59148;DHT22;44930;52.878;6.168;2023-09-30T13:42:44;19.50;99.90
59148;DHT22;44930;52.878;6.168;2023-09-30T13:45:10;20.40;99.90
59148;DHT22;44930;52.878;6.168;2023-09-30T13:47:36;20.20;99.90
59148;DHT22;44930;52.878;6.168;2023-09-30T13:50:02;20.30;99.90
59148;DHT22;44930;52.878;6.168;2023-09-30T13:52:33;19.80;99.90
59148;DHT22;44930;52.878;6.168;2023-09-30T13:54:59;19.80;99.90
59148;DHT22;44930;52.878;6.168;2023-09-30T13:57:25;20.50;99.90
59148;DHT22;44930;52.878;6.168;2023-09-30T13:59:51;20.00;99.90
59148;DHT22;44930;52.878;6.168;2023-09-30T14:02:16;20.10;99.90
59148;DHT22;44930;52.878;6.168;2023-09-30T14:04:42;20.00;99.90
59148;DHT22;44930;52.878;6.168;2023-09-30T14:07:07;19.70;99.90
59148;DHT22;44930;52.878;6.168;2023-09-30T14:09:33;19.40;99.90
59148;DHT22;44930;52.878;6.168;2023-09-30T14:11:59;19.40;99.90
59148;DHT22;44930;52.878;6.168;2023-09-30T14:14:25;19.50;99.90
59148;DHT22;44930;52.878;6.168;2023-09-30T14:16:51;19.20;99.90
59148;DHT22;44930;52.878;6.168;2023-09-30T14:19:17;19.60;99.90
59148;DHT22;44930;52.878;6.168;2023-09-30T14:21:43;19.50;99.90
59148;DHT22;44930;52.878;6.168;2023-09-30T14:24:08;19.40;99.90
59148;DHT22;44930;52.878;6.168;2023-09-30T14:26:34;19.40;99.90
59148;DHT22;44930;52.878;6.168;2023-09-30T14:29:00;19.60;99.90
59148;DHT22;44930;52.878;6.168;2023-09-30T14:31:26;19.30;99.90
59148;DHT22;44930;52.878;6.168;2023-09-30T14:33:51;19.10;99.90
59148;DHT22;44930;52.878;6.168;2023-09-30T14:36:18;18.90;99.90
59148;DHT22;44930;52.878;6.168;2023-09-30T14:38:47;19.00;99.90
59148;DHT22;44930;52.878;6.168;2023-09-30T14:41:13;18.40;99.90
59148;DHT22;44930;52.878;6.168;2023-09-30T14:43:39;18.50;99.90
59148;DHT22;44930;52.878;6.168;2023-09-30T14:46:05;18.50;99.90
59148;DHT22;44930;52.878;6.168;2023-09-30T14:48:30;18.50;99.90
59148;DHT22;44930;52.878;6.168;2023-09-30T14:50:56;17.90;99.90
59148;DHT22;44930;52.878;6.168;2023-09-30T14:53:22;18.10;99.90
59148;DHT22;44930;52.878;6.168;2023-09-30T14:55:48;18.40;99.90
59148;DHT22;44930;52.878;6.168;2023-09-30T14:58:14;18.10;99.90
59148;DHT22;44930;52.878;6.168;2023-09-30T15:00:40;18.30;99.90
59148;DHT22;44930;52.878;6.168;2023-09-30T15:03:05;18.30;99.90
59148;DHT22;44930;52.878;6.168;2023-09-30T15:05:32;18.40;99.90
59148;DHT22;44930;52.878;6.168;2023-09-30T15:07:57;18.20;99.90
59148;DHT22;44930;52.878;6.168;2023-09-30T15:10:25;18.50;99.90
59148;DHT22;44930;52.878;6.168;2023-09-30T15:12:50;18.60;99.90
59148;DHT22;44930;52.878;6.168;2023-09-30T15:15:16;18.70;99.90
59148;DHT22;44930;52.878;6.168;2023-09-30T15:17:41;18.90;99.90
59148;DHT22;44930;52.878;6.168;2023-09-30T15:20:08;18.80;99.90
59148;DHT22;44930;52.878;6.168;2023-09-30T15:22:33;19.10;99.90
59148;DHT22;44930;52.878;6.168;2023-09-30T15:24:59;19.30;99.90
59148;DHT22;44930;52.878;6.168;2023-09-30T15:27:25;19.30;99.90
59148;DHT22;44930;52.878;6.168;2023-09-30T15:29:51;19.10;99.90
59148;DHT22;44930;52.878;6.168;2023-09-30T15:32:16;19.20;99.90
59148;DHT22;44930;52.878;6.168;2023-09-30T15:34:42;19.10;99.90
59148;DHT22;44930;52.878;6.168;2023-09-30T15:37:09;19.10;99.90
59148;DHT22;44930;52.878;6.168;2023-09-30T15:39:39;19.10;99.90
59148;DHT22;44930;52.878;6.168;2023-09-30T15:42:06;19.00;99.90
59148;DHT22;44930;52.878;6.168;2023-09-30T15:44:34;18.70;99.90
59148;DHT22;44930;52.878;6.168;2023-09-30T15:47:00;18.70;99.90
59148;DHT22;44930;52.878;6.168;2023-09-30T15:49:26;18.50;99.90
59148;DHT22;44930;52.878;6.168;2023-09-30T15:51:51;18.60;99.90
59148;DHT22;44930;52.878;6.168;2023-09-30T15:54:18;18.30;99.90
59148;DHT22;44930;52.878;6.168;2023-09-30T15:56:44;18.10;99.90
59148;DHT22;44930;52.878;6.168;2023-09-30T15:59:09;18.20;99.90
59148;DHT22;44930;52.878;6.168;2023-09-30T16:01:35;18.40;99.90
59148;DHT22;44930;52.878;6.168;2023-09-30T16:04:00;18.10;99.90
59148;DHT22;44930;52.878;6.168;2023-09-30T16:06:26;18.10;99.90
59148;DHT22;44930;52.878;6.168;2023-09-30T16:08:52;18.10;99.90
59148;DHT22;44930;52.878;6.168;2023-09-30T16:11:23;18.30;99.90
59148;DHT22;44930;52.878;6.168;2023-09-30T16:13:49;17.70;99.90
59148;DHT22;44930;52.878;6.168;2023-09-30T16:16:14;18.30;99.90
59148;DHT22;44930;52.878;6.168;2023-09-30T16:18:40;17.80;99.90
59148;DHT22;44930;52.878;6.168;2023-09-30T16:21:05;17.40;99.90
59148;DHT22;44930;52.878;6.168;2023-09-30T16:23:31;18.00;99.90
59148;DHT22;44930;52.878;6.168;2023-09-30T16:25:57;18.10;99.90
59148;DHT22;44930;52.878;6.168;2023-09-30T16:28:22;17.30;99.90
59148;DHT22;44930;52.878;6.168;2023-09-30T16:30:48;17.60;99.90
59148;DHT22;44930;52.878;6.168;2023-09-30T16:33:13;17.60;99.90
59148;DHT22;44930;52.878;6.168;2023-09-30T16:35:39;17.70;99.90
59148;DHT22;44930;52.878;6.168;2023-09-30T16:38:05;17.70;99.90
59148;DHT22;44930;52.878;6.168;2023-09-30T16:40:30;17.40;99.90
59148;DHT22;44930;52.878;6.168;2023-09-30T16:42:56;17.20;99.90
59148;DHT22;44930;52.878;6.168;2023-09-30T16:45:22;17.50;99.90
59148;DHT22;44930;52.878;6.168;2023-09-30T16:47:47;17.20;99.90
59148;DHT22;44930;52.878;6.168;2023-09-30T16:50:13;17.20;99.90
59148;DHT22;44930;52.878;6.168;2023-09-30T16:52:39;17.10;99.90
59148;DHT22;44930;52.878;6.168;2023-09-30T16:57:32;17.60;99.90
59148;DHT22;44930;52.878;6.168;2023-09-30T16:59:58;17.20;99.90
59148;DHT22;44930;52.878;6.168;2023-09-30T17:02:24;17.60;99.90
59148;DHT22;44930;52.878;6.168;2023-09-30T17:04:50;17.50;99.90
59148;DHT22;44930;52.878;6.168;2023-09-30T17:07:18;17.10;99.90
59148;DHT22;44930;52.878;6.168;2023-09-30T17:09:44;17.20;99.90
59148;DHT22;44930;52.878;6.168;2023-09-30T17:12:09;17.10;99.90
59148;DHT22;44930;52.878;6.168;2023-09-30T17:14:35;17.10;99.90
59148;DHT22;44930;52.878;6.168;2023-09-30T17:17:04;17.00;99.90